Terminal Aerodrome Forecast
Issued by NWS Mt. Holly, NJ

Home | Current Version | Previous Version | Text Only | Print | Product List | Glossary On
Versions: 1 2 3 4 5 6 7 8 9 10 11 12 13 14 15 16 17 18
000
FTUS41 KPHI 040545
TAFABE
TAF
KABE 040545Z 0406/0506 16004KT P6SM BKN100
     FM040900 10004KT 6SM -SHRA SCT030 OVC080
      TEMPO 0412/0416 3SM SHRA BR BKN025
     FM041800 06006KT P6SM BKN040
     FM050000 VRB04KT P6SM SCT050=

USA.gov is the U.S. government's official web portal to all federal, state and local government web resources and services.